Track Шведова Ярослав

Time Latitude Longitude Accuracy (66% radius in meters) Altitude (meters) Speed (km/hour) Bearing (degrees) Battery (%) GPS flag
07:41:27 57.203895 60.118300 0 0 0 0 1 delete
07:41:26 57.203895 60.118302 0 0 0 0 1 delete
07:41:25 57.203893 60.118307 0 0 0 0 1 delete
07:41:24 57.203895 60.118312 0 0 0 0 1 delete
07:41:23 57.203895 60.118322 0 0 0 0 1 delete
07:41:22 57.203902 60.118325 0 0 0 0 1 delete
07:41:21 57.203912 60.118323 0 0 0 0 1 delete
07:41:20 57.203920 60.118315 0 0 0 0 1 delete
07:41:19 57.203928 60.118305 0 0 0 0 1 delete
07:41:18 57.203938 60.118293 0 0 0 0 1 delete
07:41:17 57.203947 60.118283 0 0 0 0 1 delete
07:41:16 57.203950 60.118275 0 0 0 0 1 delete
07:41:15 57.203950 60.118265 0 0 0 0 1 delete
07:41:14 57.203948 60.118270 0 0 0 0 1 delete
07:41:13 57.203947 60.118273 0 0 0 0 1 delete
07:41:12 57.203945 60.118275 0 0 0 0 1 delete
07:41:11 57.203945 60.118275 0 0 0 0 1 delete
07:41:10 57.203945 60.118275 0 0 0 0 1 delete
07:41:09 57.203943 60.118273 0 0 0 0 1 delete
07:41:08 57.203943 60.118275 0 0 0 0 1 delete
07:41:07 57.203942 60.118277 0 0 0 0 1 delete
07:41:06 57.203942 60.118280 0 0 0 0 1 delete
07:41:05 57.203940 60.118280 0 0 0 0 1 delete
07:41:04 57.203940 60.118282 0 0 0 0 1 delete
07:41:03 57.203940 60.118282 0 0 0 0 1 delete
07:41:02 57.203940 60.118283 0 0 0 0 1 delete
07:41:01 57.203942 60.118283 0 0 0 0 1 delete
07:41:00 57.203942 60.118285 0 0 0 0 1 delete
07:40:59 57.203942 60.118287 0 0 0 0 1 delete
07:40:58 57.203943 60.118292 0 0 0 0 1 delete
07:40:57 57.203945 60.118293 0 0 0 0 1 delete
07:40:56 57.203945 60.118297 0 0 0 0 1 delete
07:40:55 57.203943 60.118302 0 0 0 0 1 delete
07:40:54 57.203943 60.118303 0 0 0 0 1 delete
07:40:53 57.203942 60.118307 0 0 0 0 1 delete
07:40:52 57.203942 60.118305 0 0 0 0 1 delete
07:40:51 57.203942 60.118308 0 0 0 0 1 delete
07:40:50 57.203940 60.118312 0 0 0 0 1 delete
07:40:49 57.203940 60.118315 0 0 0 0 1 delete
07:40:48 57.203940 60.118318 0 0 0 0 1 delete
07:40:47 57.203942 60.118317 0 0 0 0 1 delete
07:40:46 57.203942 60.118308 0 0 0 0 1 delete
07:40:45 57.203943 60.118298 0 0 0 0 1 delete
07:40:44 57.203958 60.118290 0 0 0 0 1 delete
07:40:43 57.203983 60.118252 0 0 0 0 1 delete
07:40:42 57.204012 60.118200 0 0 0 0 1 delete
07:40:41 57.204037 60.118153 0 0 0 0 1 delete
07:40:40 57.204058 60.118108 0 0 0 0 1 delete
07:40:39 57.204078 60.118068 0 0 0 0 1 delete
07:40:38 57.204105 60.118022 0 0 0 0 1 delete